sensor_id;sensor_type;location;lat;lon;timestamp;pressure;altitude;pressure_sealevel;temperature;humidity
2785;BME280;57944;48.722;9.316;2023-07-08T00:01:08;98134.66;;;21.33;40.54
2785;BME280;57944;48.722;9.316;2023-07-08T00:03:41;98132.34;;;21.32;40.95
2785;BME280;57944;48.722;9.316;2023-07-08T00:06:18;98133.38;;;21.36;42.38
2785;BME280;57944;48.722;9.316;2023-07-08T00:08:50;98131.53;;;21.36;41.02
2785;BME280;57944;48.722;9.316;2023-07-08T00:11:21;98131.28;;;21.33;41.78
2785;BME280;57944;48.722;9.316;2023-07-08T00:13:54;98125.56;;;21.31;41.29
2785;BME280;57944;48.722;9.316;2023-07-08T00:16:24;98124.84;;;21.40;41.35
2785;BME280;57944;48.722;9.316;2023-07-08T00:18:55;98127.41;;;21.35;41.12
2785;BME280;57944;48.722;9.316;2023-07-08T00:21:25;98118.31;;;21.33;41.48
2785;BME280;57944;48.722;9.316;2023-07-08T00:23:56;98121.69;;;21.28;41.26
2785;BME280;57944;48.722;9.316;2023-07-08T00:26:29;98112.09;;;21.18;41.18
2785;BME280;57944;48.722;9.316;2023-07-08T00:29:08;98112.34;;;21.12;41.43
2785;BME280;57944;48.722;9.316;2023-07-08T00:31:38;98108.97;;;21.06;41.41
2785;BME280;57944;48.722;9.316;2023-07-08T00:34:09;98105.31;;;21.02;41.69
2785;BME280;57944;48.722;9.316;2023-07-08T00:36:40;98112.59;;;21.05;41.86
2785;BME280;57944;48.722;9.316;2023-07-08T00:39:14;98104.28;;;21.03;41.29
2785;BME280;57944;48.722;9.316;2023-07-08T00:41:45;98106.63;;;21.05;41.73
2785;BME280;57944;48.722;9.316;2023-07-08T00:44:19;98111.03;;;20.99;41.52
2785;BME280;57944;48.722;9.316;2023-07-08T00:47:02;98108.47;;;21.09;41.78
2785;BME280;57944;48.722;9.316;2023-07-08T00:49:40;98114.66;;;20.98;41.58
2785;BME280;57944;48.722;9.316;2023-07-08T00:52:24;98122.94;;;20.90;42.22
2785;BME280;57944;48.722;9.316;2023-07-08T00:54:58;98124.97;;;20.83;41.53
2785;BME280;57944;48.722;9.316;2023-07-08T00:57:33;98127.50;;;20.72;42.48
2785;BME280;57944;48.722;9.316;2023-07-08T01:00:12;98121.78;;;20.60;43.07
2785;BME280;57944;48.722;9.316;2023-07-08T01:02:49;98122.97;;;20.47;43.11
2785;BME280;57944;48.722;9.316;2023-07-08T01:05:27;98119.13;;;20.45;43.86
2785;BME280;57944;48.722;9.316;2023-07-08T01:08:05;98116.91;;;20.21;44.60
2785;BME280;57944;48.722;9.316;2023-07-08T01:10:44;98119.47;;;20.16;45.27
2785;BME280;57944;48.722;9.316;2023-07-08T01:13:17;98123.06;;;20.10;45.76
2785;BME280;57944;48.722;9.316;2023-07-08T01:15:51;98118.13;;;20.03;45.49
2785;BME280;57944;48.722;9.316;2023-07-08T01:18:22;98121.44;;;19.99;45.83
2785;BME280;57944;48.722;9.316;2023-07-08T01:20:54;98119.03;;;19.87;46.13
2785;BME280;57944;48.722;9.316;2023-07-08T01:23:28;98117.41;;;19.76;46.38
2785;BME280;57944;48.722;9.316;2023-07-08T01:26:00;98121.69;;;19.65;47.49
2785;BME280;57944;48.722;9.316;2023-07-08T01:28:32;98117.19;;;19.55;47.10
2785;BME280;57944;48.722;9.316;2023-07-08T01:31:03;98115.88;;;19.48;48.99
2785;BME280;57944;48.722;9.316;2023-07-08T01:33:34;98112.25;;;19.49;48.00
2785;BME280;57944;48.722;9.316;2023-07-08T01:36:05;98114.28;;;19.47;48.83
2785;BME280;57944;48.722;9.316;2023-07-08T01:38:39;98108.50;;;19.34;49.49
2785;BME280;57944;48.722;9.316;2023-07-08T01:41:13;98116.16;;;19.24;49.35
2785;BME280;57944;48.722;9.316;2023-07-08T01:43:44;98114.00;;;19.16;49.45
2785;BME280;57944;48.722;9.316;2023-07-08T01:46:20;98117.34;;;19.11;48.65
2785;BME280;57944;48.722;9.316;2023-07-08T01:48:55;98115.78;;;19.10;48.96
2785;BME280;57944;48.722;9.316;2023-07-08T01:51:27;98109.06;;;19.09;48.79
2785;BME280;57944;48.722;9.316;2023-07-08T01:54:01;98111.88;;;19.08;49.31
2785;BME280;57944;48.722;9.316;2023-07-08T01:56:31;98104.88;;;19.03;48.78
2785;BME280;57944;48.722;9.316;2023-07-08T01:59:02;98104.06;;;19.03;51.36
2785;BME280;57944;48.722;9.316;2023-07-08T02:01:33;98108.41;;;18.97;51.22
2785;BME280;57944;48.722;9.316;2023-07-08T02:04:04;98104.69;;;18.88;50.40
2785;BME280;57944;48.722;9.316;2023-07-08T02:06:36;98108.06;;;18.88;51.20
2785;BME280;57944;48.722;9.316;2023-07-08T02:09:09;98110.88;;;18.87;52.53
2785;BME280;57944;48.722;9.316;2023-07-08T02:11:39;98109.03;;;18.82;50.60
2785;BME280;57944;48.722;9.316;2023-07-08T02:14:10;98108.88;;;18.72;50.83
2785;BME280;57944;48.722;9.316;2023-07-08T02:16:40;98107.69;;;18.58;51.61
2785;BME280;57944;48.722;9.316;2023-07-08T02:19:11;98104.19;;;18.47;52.94
2785;BME280;57944;48.722;9.316;2023-07-08T02:21:42;98104.44;;;18.45;52.98
2785;BME280;57944;48.722;9.316;2023-07-08T02:24:15;98108.06;;;18.44;52.72
2785;BME280;57944;48.722;9.316;2023-07-08T02:26:46;98118.31;;;18.39;52.41
2785;BME280;57944;48.722;9.316;2023-07-08T02:29:17;98108.94;;;18.33;53.63
2785;BME280;57944;48.722;9.316;2023-07-08T02:31:48;98112.31;;;18.34;52.31
2785;BME280;57944;48.722;9.316;2023-07-08T02:34:19;98118.81;;;18.41;51.89
2785;BME280;57944;48.722;9.316;2023-07-08T02:36:49;98122.50;;;18.45;52.06
2785;BME280;57944;48.722;9.316;2023-07-08T02:39:22;98121.25;;;18.48;51.54
2785;BME280;57944;48.722;9.316;2023-07-08T02:41:53;98116.03;;;18.43;51.31
2785;BME280;57944;48.722;9.316;2023-07-08T02:44:24;98120.34;;;18.37;52.36
2785;BME280;57944;48.722;9.316;2023-07-08T02:46:54;98130.84;;;18.30;54.94
2785;BME280;57944;48.722;9.316;2023-07-08T02:49:25;98139.84;;;18.28;55.61
2785;BME280;57944;48.722;9.316;2023-07-08T02:51:55;98136.00;;;18.30;54.83
2785;BME280;57944;48.722;9.316;2023-07-08T02:54:28;98148.09;;;18.30;56.25
2785;BME280;57944;48.722;9.316;2023-07-08T02:56:59;98148.56;;;18.27;57.34
2785;BME280;57944;48.722;9.316;2023-07-08T02:59:30;98159.66;;;18.44;55.92
2785;BME280;57944;48.722;9.316;2023-07-08T03:02:01;98164.53;;;18.63;54.25
2785;BME280;57944;48.722;9.316;2023-07-08T03:04:32;98167.22;;;18.90;53.45
2785;BME280;57944;48.722;9.316;2023-07-08T03:07:08;98171.78;;;19.05;52.83
2785;BME280;57944;48.722;9.316;2023-07-08T03:09:42;98171.34;;;19.13;53.65
2785;BME280;57944;48.722;9.316;2023-07-08T03:12:12;98165.63;;;19.11;54.25
2785;BME280;57944;48.722;9.316;2023-07-08T03:14:43;98160.31;;;18.95;55.83
2785;BME280;57944;48.722;9.316;2023-07-08T03:17:14;98170.59;;;18.90;55.45
2785;BME280;57944;48.722;9.316;2023-07-08T03:19:47;98183.38;;;18.80;57.00
2785;BME280;57944;48.722;9.316;2023-07-08T03:22:17;98191.06;;;18.75;56.78
2785;BME280;57944;48.722;9.316;2023-07-08T03:24:51;98161.63;;;18.76;57.47
2785;BME280;57944;48.722;9.316;2023-07-08T03:27:23;98173.03;;;18.80;58.17
2785;BME280;57944;48.722;9.316;2023-07-08T03:29:54;98178.69;;;18.77;57.96
2785;BME280;57944;48.722;9.316;2023-07-08T03:32:24;98185.91;;;18.75;59.11
2785;BME280;57944;48.722;9.316;2023-07-08T03:34:56;98156.84;;;18.68;59.62
2785;BME280;57944;48.722;9.316;2023-07-08T03:37:29;98164.41;;;18.52;61.97
2785;BME280;57944;48.722;9.316;2023-07-08T03:40:03;98175.94;;;18.45;62.71
2785;BME280;57944;48.722;9.316;2023-07-08T03:42:34;98170.03;;;18.49;62.90
2785;BME280;57944;48.722;9.316;2023-07-08T03:45:07;98171.13;;;18.53;64.10
2785;BME280;57944;48.722;9.316;2023-07-08T03:47:38;98166.00;;;18.37;62.70
2785;BME280;57944;48.722;9.316;2023-07-08T03:54:22;98167.34;;;18.39;65.24
2785;BME280;57944;48.722;9.316;2023-07-08T03:56:59;98174.38;;;18.27;66.15
2785;BME280;57944;48.722;9.316;2023-07-08T03:59:31;98173.47;;;18.33;66.67
2785;BME280;57944;48.722;9.316;2023-07-08T04:02:03;98170.44;;;18.41;66.85
2785;BME280;57944;48.722;9.316;2023-07-08T04:04:33;98169.63;;;18.58;65.28
2785;BME280;57944;48.722;9.316;2023-07-08T04:07:05;98171.31;;;18.69;65.10
2785;BME280;57944;48.722;9.316;2023-07-08T04:09:35;98163.66;;;18.74;65.46
2785;BME280;57944;48.722;9.316;2023-07-08T04:12:10;98153.69;;;18.83;65.84
2785;BME280;57944;48.722;9.316;2023-07-08T04:14:40;98158.44;;;19.13;65.02
2785;BME280;57944;48.722;9.316;2023-07-08T04:21:00;98158.28;;;20.16;59.09
2785;BME280;57944;48.722;9.316;2023-07-08T04:23:33;98165.88;;;20.81;55.83
2785;BME280;57944;48.722;9.316;2023-07-08T04:26:04;98174.38;;;21.54;51.70
2785;BME280;57944;48.722;9.316;2023-07-08T04:28:37;98176.19;;;22.30;50.05
2785;BME280;57944;48.722;9.316;2023-07-08T04:31:08;98171.19;;;22.60;48.30
2785;BME280;57944;48.722;9.316;2023-07-08T04:37:54;98165.78;;;23.11;46.00
2785;BME280;57944;48.722;9.316;2023-07-08T04:40:25;98168.69;;;23.44;45.84
2785;BME280;57944;48.722;9.316;2023-07-08T04:42:55;98179.78;;;23.94;44.71
2785;BME280;57944;48.722;9.316;2023-07-08T04:45:29;98169.25;;;24.33;44.19
2785;BME280;57944;48.722;9.316;2023-07-08T04:48:00;98172.16;;;24.56;42.86
2785;BME280;57944;48.722;9.316;2023-07-08T04:50:35;98174.66;;;24.85;42.50
2785;BME280;57944;48.722;9.316;2023-07-08T04:53:06;98166.53;;;24.91;42.47
2785;BME280;57944;48.722;9.316;2023-07-08T04:55:38;98175.41;;;25.47;42.03
2785;BME280;57944;48.722;9.316;2023-07-08T04:58:10;98180.72;;;26.07;40.09
2785;BME280;57944;48.722;9.316;2023-07-08T05:00:43;98182.00;;;25.77;41.02
2785;BME280;57944;48.722;9.316;2023-07-08T05:03:13;98182.03;;;25.58;41.82
2785;BME280;57944;48.722;9.316;2023-07-08T05:05:44;98182.56;;;26.07;41.89
2785;BME280;57944;48.722;9.316;2023-07-08T05:08:14;98179.13;;;26.39;40.05
2785;BME280;57944;48.722;9.316;2023-07-08T05:10:44;98179.47;;;26.88;39.58
2785;BME280;57944;48.722;9.316;2023-07-08T05:13:15;98184.19;;;27.50;39.20
2785;BME280;57944;48.722;9.316;2023-07-08T05:15:49;98173.88;;;27.53;38.90
2785;BME280;57944;48.722;9.316;2023-07-08T05:18:19;98178.25;;;27.80;38.29
2785;BME280;57944;48.722;9.316;2023-07-08T05:20:53;98184.63;;;28.28;38.00
2785;BME280;57944;48.722;9.316;2023-07-08T05:23:25;98178.81;;;28.40;37.70
2785;BME280;57944;48.722;9.316;2023-07-08T05:26:00;98188.88;;;29.21;36.65
2785;BME280;57944;48.722;9.316;2023-07-08T05:28:31;98189.63;;;30.21;33.26
2785;BME280;57944;48.722;9.316;2023-07-08T05:31:05;98199.81;;;30.61;32.03
2785;BME280;57944;48.722;9.316;2023-07-08T05:33:36;98216.38;;;30.91;31.27
2785;BME280;57944;48.722;9.316;2023-07-08T05:36:07;98221.44;;;31.17;31.41
2785;BME280;57944;48.722;9.316;2023-07-08T05:38:37;98200.19;;;31.22;31.16
2785;BME280;57944;48.722;9.316;2023-07-08T05:41:08;98214.97;;;31.35;30.82
2785;BME280;57944;48.722;9.316;2023-07-08T05:43:40;98210.34;;;31.11;30.01
2785;BME280;57944;48.722;9.316;2023-07-08T05:46:16;98218.88;;;30.58;31.12
2785;BME280;57944;48.722;9.316;2023-07-08T05:48:47;98226.56;;;30.63;31.47
2785;BME280;57944;48.722;9.316;2023-07-08T05:51:18;98219.41;;;30.72;30.58
2785;BME280;57944;48.722;9.316;2023-07-08T05:53:49;98218.44;;;30.47;31.25
2785;BME280;57944;48.722;9.316;2023-07-08T05:56:20;98213.78;;;30.23;30.59
2785;BME280;57944;48.722;9.316;2023-07-08T05:58:50;98225.91;;;29.80;32.35
2785;BME280;57944;48.722;9.316;2023-07-08T06:01:24;98229.47;;;29.58;32.31
2785;BME280;57944;48.722;9.316;2023-07-08T06:07:32;98233.97;;;29.32;32.69
2785;BME280;57944;48.722;9.316;2023-07-08T06:10:04;98237.22;;;29.29;33.36
2785;BME280;57944;48.722;9.316;2023-07-08T06:12:35;98238.28;;;29.28;33.93
2785;BME280;57944;48.722;9.316;2023-07-08T06:15:07;98234.72;;;29.24;34.35
2785;BME280;57944;48.722;9.316;2023-07-08T06:17:42;98227.91;;;28.48;35.79
2785;BME280;57944;48.722;9.316;2023-07-08T06:20:13;98230.91;;;28.33;36.51
2785;BME280;57944;48.722;9.316;2023-07-08T06:22:43;98235.22;;;28.68;35.89
2785;BME280;57944;48.722;9.316;2023-07-08T06:25:16;98232.78;;;28.41;36.57
2785;BME280;57944;48.722;9.316;2023-07-08T06:27:46;98233.53;;;28.72;35.45
2785;BME280;57944;48.722;9.316;2023-07-08T06:30:21;98233.53;;;28.72;35.00
2785;BME280;57944;48.722;9.316;2023-07-08T06:32:54;98232.97;;;28.13;36.13
2785;BME280;57944;48.722;9.316;2023-07-08T06:35:28;98244.53;;;27.67;37.08
2785;BME280;57944;48.722;9.316;2023-07-08T06:37:58;98239.63;;;27.74;37.57
2785;BME280;57944;48.722;9.316;2023-07-08T06:40:29;98253.88;;;27.59;38.05
2785;BME280;57944;48.722;9.316;2023-07-08T06:43:01;98259.88;;;27.60;37.80
2785;BME280;57944;48.722;9.316;2023-07-08T06:45:55;98266.19;;;27.59;38.28
2785;BME280;57944;48.722;9.316;2023-07-08T06:48:28;98274.81;;;27.59;37.88
2785;BME280;57944;48.722;9.316;2023-07-08T06:50:58;98285.88;;;27.56;38.17
2785;BME280;57944;48.722;9.316;2023-07-08T06:53:29;98293.06;;;27.51;38.42
2785;BME280;57944;48.722;9.316;2023-07-08T06:56:00;98293.91;;;27.60;38.71
2785;BME280;57944;48.722;9.316;2023-07-08T06:58:31;98287.09;;;27.73;38.10
2785;BME280;57944;48.722;9.316;2023-07-08T07:01:01;98284.16;;;28.19;38.15
2785;BME280;57944;48.722;9.316;2023-07-08T07:03:35;98276.25;;;28.64;38.04
2785;BME280;57944;48.722;9.316;2023-07-08T07:06:05;98280.13;;;29.33;36.42
2785;BME280;57944;48.722;9.316;2023-07-08T07:08:36;98290.66;;;29.59;36.18
2785;BME280;57944;48.722;9.316;2023-07-08T07:11:07;98284.94;;;29.57;35.59
2785;BME280;57944;48.722;9.316;2023-07-08T07:13:38;98294.78;;;29.16;36.42
2785;BME280;57944;48.722;9.316;2023-07-08T07:16:08;98288.34;;;29.31;35.96
2785;BME280;57944;48.722;9.316;2023-07-08T07:18:42;98290.00;;;29.18;35.91
2785;BME280;57944;48.722;9.316;2023-07-08T07:21:13;98289.38;;;29.04;36.31
2785;BME280;57944;48.722;9.316;2023-07-08T07:23:44;98288.22;;;28.88;37.04
2785;BME280;57944;48.722;9.316;2023-07-08T07:26:15;98286.66;;;28.87;37.75
2785;BME280;57944;48.722;9.316;2023-07-08T07:28:45;98293.09;;;28.72;38.35
2785;BME280;57944;48.722;9.316;2023-07-08T07:31:16;98294.31;;;28.74;37.63
2785;BME280;57944;48.722;9.316;2023-07-08T07:33:49;98290.66;;;28.76;38.64
2785;BME280;57944;48.722;9.316;2023-07-08T07:36:20;98298.50;;;27.91;39.97
2785;BME280;57944;48.722;9.316;2023-07-08T07:38:51;98305.69;;;27.85;39.70
2785;BME280;57944;48.722;9.316;2023-07-08T07:41:30;98298.97;;;28.15;39.28
2785;BME280;57944;48.722;9.316;2023-07-08T07:44:01;98296.47;;;28.41;38.74
2785;BME280;57944;48.722;9.316;2023-07-08T07:46:32;98299.16;;;28.81;38.44
2785;BME280;57944;48.722;9.316;2023-07-08T07:49:05;98308.66;;;29.08;37.40
2785;BME280;57944;48.722;9.316;2023-07-08T07:51:36;98304.22;;;29.26;37.05
2785;BME280;57944;48.722;9.316;2023-07-08T07:54:06;98301.28;;;29.28;37.34
2785;BME280;57944;48.722;9.316;2023-07-08T07:56:37;98303.63;;;28.81;38.06
2785;BME280;57944;48.722;9.316;2023-07-08T07:59:08;98293.59;;;28.43;38.51
2785;BME280;57944;48.722;9.316;2023-07-08T08:01:39;98301.38;;;28.03;39.57
2785;BME280;57944;48.722;9.316;2023-07-08T08:04:12;98304.16;;;28.06;39.71
2785;BME280;57944;48.722;9.316;2023-07-08T08:06:43;98303.38;;;28.28;39.32
2785;BME280;57944;48.722;9.316;2023-07-08T08:09:15;98301.56;;;28.38;38.86
2785;BME280;57944;48.722;9.316;2023-07-08T08:11:48;98294.72;;;28.50;38.31
2785;BME280;57944;48.722;9.316;2023-07-08T08:14:19;98299.97;;;28.50;38.55
2785;BME280;57944;48.722;9.316;2023-07-08T08:16:50;98298.50;;;28.67;37.60
2785;BME280;57944;48.722;9.316;2023-07-08T08:19:23;98299.66;;;28.92;37.72
2785;BME280;57944;48.722;9.316;2023-07-08T08:21:54;98301.91;;;29.25;36.99
2785;BME280;57944;48.722;9.316;2023-07-08T08:24:25;98304.09;;;29.57;36.89
2785;BME280;57944;48.722;9.316;2023-07-08T08:26:55;98303.81;;;29.85;36.19
2785;BME280;57944;48.722;9.316;2023-07-08T08:29:26;98312.94;;;29.79;37.17
2785;BME280;57944;48.722;9.316;2023-07-08T08:31:57;98316.75;;;29.55;37.48
2785;BME280;57944;48.722;9.316;2023-07-08T08:38:14;98311.84;;;28.96;38.75
2785;BME280;57944;48.722;9.316;2023-07-08T08:40:45;98312.22;;;29.12;38.67
2785;BME280;57944;48.722;9.316;2023-07-08T08:43:19;98308.25;;;29.32;38.34
2785;BME280;57944;48.722;9.316;2023-07-08T08:45:57;98315.84;;;29.51;37.38
2785;BME280;57944;48.722;9.316;2023-07-08T08:48:36;98319.81;;;29.23;38.39
2785;BME280;57944;48.722;9.316;2023-07-08T08:51:13;98316.03;;;29.72;37.55
2785;BME280;57944;48.722;9.316;2023-07-08T08:53:56;98312.25;;;30.17;37.27
2785;BME280;57944;48.722;9.316;2023-07-08T08:56:39;98307.16;;;30.29;36.99
2785;BME280;57944;48.722;9.316;2023-07-08T08:59:16;98316.94;;;30.28;37.05
2785;BME280;57944;48.722;9.316;2023-07-08T09:01:53;98324.94;;;30.06;37.79
2785;BME280;57944;48.722;9.316;2023-07-08T09:04:31;98320.31;;;30.03;37.05
2785;BME280;57944;48.722;9.316;2023-07-08T09:07:07;98312.44;;;30.12;37.11
2785;BME280;57944;48.722;9.316;2023-07-08T09:09:50;98318.31;;;30.09;36.55
2785;BME280;57944;48.722;9.316;2023-07-08T09:12:25;98326.97;;;30.18;36.45
2785;BME280;57944;48.722;9.316;2023-07-08T09:15:00;98327.72;;;30.36;35.93
2785;BME280;57944;48.722;9.316;2023-07-08T09:17:32;98326.94;;;30.91;35.09
2785;BME280;57944;48.722;9.316;2023-07-08T09:20:17;98332.38;;;32.90;32.12
2785;BME280;57944;48.722;9.316;2023-07-08T09:22:56;98334.25;;;35.03;29.63
2785;BME280;57944;48.722;9.316;2023-07-08T09:25:33;98336.09;;;35.18;28.83
2785;BME280;57944;48.722;9.316;2023-07-08T09:28:06;98344.19;;;35.06;28.76
2785;BME280;57944;48.722;9.316;2023-07-08T09:30:37;98335.47;;;35.60;28.36
2785;BME280;57944;48.722;9.316;2023-07-08T09:33:09;98328.13;;;35.73;27.89
2785;BME280;57944;48.722;9.316;2023-07-08T09:35:42;98325.03;;;34.97;29.06
2785;BME280;57944;48.722;9.316;2023-07-08T09:38:16;98319.41;;;33.91;30.34
2785;BME280;57944;48.722;9.316;2023-07-08T09:40:51;98321.09;;;33.55;30.77
2785;BME280;57944;48.722;9.316;2023-07-08T09:43:26;98314.53;;;33.12;31.44
2785;BME280;57944;48.722;9.316;2023-07-08T09:45:59;98319.72;;;32.84;31.63
2785;BME280;57944;48.722;9.316;2023-07-08T09:48:33;98320.59;;;33.25;31.69
2785;BME280;57944;48.722;9.316;2023-07-08T09:51:05;98324.09;;;33.97;30.50
2785;BME280;57944;48.722;9.316;2023-07-08T09:53:39;98331.00;;;35.64;28.58
2785;BME280;57944;48.722;9.316;2023-07-08T09:56:12;98331.53;;;36.35;27.23
2785;BME280;57944;48.722;9.316;2023-07-08T09:58:44;98330.69;;;35.30;28.18
2785;BME280;57944;48.722;9.316;2023-07-08T10:01:21;98334.84;;;34.48;28.74
2785;BME280;57944;48.722;9.316;2023-07-08T10:03:58;98331.72;;;34.59;29.03
2785;BME280;57944;48.722;9.316;2023-07-08T10:06:31;98328.34;;;34.46;29.33
2785;BME280;57944;48.722;9.316;2023-07-08T10:09:05;98327.75;;;34.21;29.86
2785;BME280;57944;48.722;9.316;2023-07-08T10:11:42;98325.63;;;34.11;29.85
2785;BME280;57944;48.722;9.316;2023-07-08T10:14:23;98332.34;;;33.80;30.16
2785;BME280;57944;48.722;9.316;2023-07-08T10:16:55;98325.22;;;33.15;30.94
2785;BME280;57944;48.722;9.316;2023-07-08T10:19:26;98325.22;;;33.03;31.16
2785;BME280;57944;48.722;9.316;2023-07-08T10:22:12;98328.50;;;33.12;31.08
2785;BME280;57944;48.722;9.316;2023-07-08T10:25:02;98328.28;;;33.30;30.33
2785;BME280;57944;48.722;9.316;2023-07-08T10:27:44;98329.06;;;33.30;30.42
2785;BME280;57944;48.722;9.316;2023-07-08T10:30:21;98329.41;;;33.97;29.93
2785;BME280;57944;48.722;9.316;2023-07-08T10:33:17;98333.03;;;34.21;29.67
2785;BME280;57944;48.722;9.316;2023-07-08T10:35:58;98337.28;;;35.75;28.15
2785;BME280;57944;48.722;9.316;2023-07-08T10:38:43;98332.25;;;38.03;24.53
2785;BME280;57944;48.722;9.316;2023-07-08T10:41:25;98333.75;;;38.93;24.33
2785;BME280;57944;48.722;9.316;2023-07-08T10:44:10;98336.38;;;39.62;23.37
2785;BME280;57944;48.722;9.316;2023-07-08T10:46:50;98331.03;;;39.62;22.39
2785;BME280;57944;48.722;9.316;2023-07-08T10:49:54;98326.06;;;39.57;22.79
2785;BME280;57944;48.722;9.316;2023-07-08T10:52:37;98318.00;;;38.73;23.32
2785;BME280;57944;48.722;9.316;2023-07-08T10:55:20;98321.50;;;38.84;23.59
2785;BME280;57944;48.722;9.316;2023-07-08T10:58:19;98320.72;;;39.64;23.40
2785;BME280;57944;48.722;9.316;2023-07-08T11:01:00;98315.72;;;39.41;22.96
2785;BME280;57944;48.722;9.316;2023-07-08T11:04:05;98308.28;;;40.29;22.36
2785;BME280;57944;48.722;9.316;2023-07-08T11:06:46;98305.97;;;40.28;22.25
2785;BME280;57944;48.722;9.316;2023-07-08T11:09:26;98308.22;;;40.11;22.17
2785;BME280;57944;48.722;9.316;2023-07-08T11:12:03;98309.00;;;40.76;21.41
2785;BME280;57944;48.722;9.316;2023-07-08T11:14:42;98306.44;;;41.53;21.05
2785;BME280;57944;48.722;9.316;2023-07-08T11:17:22;98299.84;;;40.45;21.22
2785;BME280;57944;48.722;9.316;2023-07-08T11:20:02;98292.66;;;41.55;20.45
2785;BME280;57944;48.722;9.316;2023-07-08T11:22:42;98295.06;;;42.02;19.75
2785;BME280;57944;48.722;9.316;2023-07-08T11:25:19;98300.53;;;41.80;19.95
2785;BME280;57944;48.722;9.316;2023-07-08T11:27:53;98291.88;;;42.59;19.57
2785;BME280;57944;48.722;9.316;2023-07-08T11:30:28;98291.72;;;42.73;19.91
2785;BME280;57944;48.722;9.316;2023-07-08T11:33:05;98289.50;;;43.02;19.12
2785;BME280;57944;48.722;9.316;2023-07-08T11:35:40;98284.06;;;41.85;20.07
2785;BME280;57944;48.722;9.316;2023-07-08T11:38:15;98286.22;;;42.05;19.92
2785;BME280;57944;48.722;9.316;2023-07-08T11:40:55;98292.31;;;42.09;19.81
2785;BME280;57944;48.722;9.316;2023-07-08T11:43:42;98279.09;;;41.84;20.02
2785;BME280;57944;48.722;9.316;2023-07-08T11:46:21;98280.00;;;40.57;21.21
2785;BME280;57944;48.722;9.316;2023-07-08T11:49:00;98273.16;;;40.38;20.99
2785;BME280;57944;48.722;9.316;2023-07-08T11:51:35;98273.88;;;40.56;21.01
2785;BME280;57944;48.722;9.316;2023-07-08T11:54:17;98273.03;;;40.95;21.32
2785;BME280;57944;48.722;9.316;2023-07-08T11:56:57;98272.25;;;40.95;20.87
2785;BME280;57944;48.722;9.316;2023-07-08T11:59:32;98262.59;;;41.92;20.21
2785;BME280;57944;48.722;9.316;2023-07-08T12:02:10;98257.03;;;39.38;21.90
2785;BME280;57944;48.722;9.316;2023-07-08T12:05:13;98249.94;;;38.86;22.64
2785;BME280;57944;48.722;9.316;2023-07-08T12:07:47;98249.50;;;40.18;21.27
2785;BME280;57944;48.722;9.316;2023-07-08T12:10:23;98242.63;;;41.45;20.42
2785;BME280;57944;48.722;9.316;2023-07-08T12:12:56;98238.63;;;38.41;22.70
2785;BME280;57944;48.722;9.316;2023-07-08T12:15:29;98233.13;;;38.75;22.47
2785;BME280;57944;48.722;9.316;2023-07-08T12:18:02;98235.59;;;39.09;22.56
2785;BME280;57944;48.722;9.316;2023-07-08T12:20:39;98233.78;;;40.56;20.95
2785;BME280;57944;48.722;9.316;2023-07-08T12:23:12;98233.03;;;40.67;20.93
2785;BME280;57944;48.722;9.316;2023-07-08T12:25:43;98226.63;;;40.32;21.33
2785;BME280;57944;48.722;9.316;2023-07-08T12:28:14;98226.56;;;39.67;21.74
2785;BME280;57944;48.722;9.316;2023-07-08T12:30:46;98237.31;;;39.96;21.45
2785;BME280;57944;48.722;9.316;2023-07-08T12:33:19;98229.66;;;40.23;21.18
2785;BME280;57944;48.722;9.316;2023-07-08T12:35:56;98236.34;;;40.99;20.47
2785;BME280;57944;48.722;9.316;2023-07-08T12:38:29;98232.84;;;41.80;19.94
2785;BME280;57944;48.722;9.316;2023-07-08T12:41:08;98229.19;;;41.56;19.62
2785;BME280;57944;48.722;9.316;2023-07-08T12:43:39;98228.50;;;41.37;20.33
2785;BME280;57944;48.722;9.316;2023-07-08T12:46:11;98231.72;;;41.73;19.89
2785;BME280;57944;48.722;9.316;2023-07-08T12:48:42;98225.97;;;42.61;18.88
2785;BME280;57944;48.722;9.316;2023-07-08T12:51:18;98216.50;;;43.18;18.85
2785;BME280;57944;48.722;9.316;2023-07-08T12:53:51;98227.59;;;42.90;19.32
2785;BME280;57944;48.722;9.316;2023-07-08T12:56:24;98223.09;;;43.10;18.85
2785;BME280;57944;48.722;9.316;2023-07-08T12:58:56;98221.53;;;43.13;19.00
2785;BME280;57944;48.722;9.316;2023-07-08T13:01:30;98211.94;;;43.42;18.43
2785;BME280;57944;48.722;9.316;2023-07-08T13:04:05;98213.63;;;44.27;17.90
2785;BME280;57944;48.722;9.316;2023-07-08T13:06:40;98212.38;;;44.75;17.37
2785;BME280;57944;48.722;9.316;2023-07-08T13:09:24;98212.47;;;45.24;17.04
2785;BME280;57944;48.722;9.316;2023-07-08T13:12:03;98205.19;;;44.05;17.96
2785;BME280;57944;48.722;9.316;2023-07-08T13:14:34;98203.28;;;43.82;18.38
2785;BME280;57944;48.722;9.316;2023-07-08T13:17:13;98214.31;;;43.37;18.63
2785;BME280;57944;48.722;9.316;2023-07-08T13:19:44;98204.25;;;42.87;18.81
2785;BME280;57944;48.722;9.316;2023-07-08T13:22:19;98211.28;;;42.73;18.89
2785;BME280;57944;48.722;9.316;2023-07-08T13:24:59;98198.38;;;43.77;17.91
2785;BME280;57944;48.722;9.316;2023-07-08T13:27:31;98196.63;;;44.13;17.60
2785;BME280;57944;48.722;9.316;2023-07-08T13:30:16;98197.31;;;43.70;18.30
2785;BME280;57944;48.722;9.316;2023-07-08T13:32:51;98204.84;;;44.46;17.34
2785;BME280;57944;48.722;9.316;2023-07-08T13:35:28;98199.53;;;43.76;17.60
2785;BME280;57944;48.722;9.316;2023-07-08T13:38:14;98208.44;;;43.18;18.08
2785;BME280;57944;48.722;9.316;2023-07-08T13:40:47;98199.41;;;42.44;18.39
2785;BME280;57944;48.722;9.316;2023-07-08T13:43:24;98198.09;;;42.90;18.32
2785;BME280;57944;48.722;9.316;2023-07-08T13:45:55;98199.94;;;43.23;18.15
2785;BME280;57944;48.722;9.316;2023-07-08T13:48:29;98197.53;;;43.80;17.80
2785;BME280;57944;48.722;9.316;2023-07-08T13:51:06;98186.53;;;42.93;18.65
2785;BME280;57944;48.722;9.316;2023-07-08T13:53:46;98196.09;;;42.63;19.22
2785;BME280;57944;48.722;9.316;2023-07-08T13:56:22;98195.69;;;42.30;19.21
2785;BME280;57944;48.722;9.316;2023-07-08T13:59:02;98189.75;;;42.50;19.58
2785;BME280;57944;48.722;9.316;2023-07-08T14:01:35;98178.66;;;42.48;19.53
2785;BME280;57944;48.722;9.316;2023-07-08T14:04:07;98181.31;;;42.10;20.02
2785;BME280;57944;48.722;9.316;2023-07-08T14:06:39;98183.78;;;43.00;19.19